sensor_id;sensor_type;location;lat;lon;timestamp;pressure;altitude;pressure_sealevel;temperature;humidity
42001;BME280;27689;48.390;10.856;2022-07-29T00:01:28;96075.94;;;18.67;100.00
42001;BME280;27689;48.390;10.856;2022-07-29T00:04:13;96053.47;;;18.70;100.00
42001;BME280;27689;48.390;10.856;2022-07-29T00:06:57;96037.34;;;18.65;100.00
42001;BME280;27689;48.390;10.856;2022-07-29T00:09:40;96024.50;;;18.69;100.00
42001;BME280;27689;48.390;10.856;2022-07-29T00:12:25;95991.22;;;18.73;100.00
42001;BME280;27689;48.390;10.856;2022-07-29T00:15:09;95959.22;;;18.81;100.00
42001;BME280;27689;48.390;10.856;2022-07-29T00:17:53;95954.91;;;18.86;100.00
42001;BME280;27689;48.390;10.856;2022-07-29T00:20:37;95953.69;;;18.89;100.00
42001;BME280;27689;48.390;10.856;2022-07-29T00:23:21;95972.28;;;18.89;100.00
42001;BME280;27689;48.390;10.856;2022-07-29T00:26:05;95988.22;;;18.82;100.00
42001;BME280;27689;48.390;10.856;2022-07-29T00:28:49;95981.66;;;18.85;100.00
42001;BME280;27689;48.390;10.856;2022-07-29T00:31:33;95982.09;;;18.82;100.00
42001;BME280;27689;48.390;10.856;2022-07-29T00:34:17;95977.38;;;18.77;100.00
42001;BME280;27689;48.390;10.856;2022-07-29T00:37:20;95980.00;;;18.71;100.00
42001;BME280;27689;48.390;10.856;2022-07-29T00:40:05;95974.25;;;18.60;100.00
42001;BME280;27689;48.390;10.856;2022-07-29T00:42:50;95972.78;;;18.51;100.00
42001;BME280;27689;48.390;10.856;2022-07-29T00:45:35;95969.31;;;18.57;100.00
42001;BME280;27689;48.390;10.856;2022-07-29T00:48:19;95977.28;;;18.57;100.00
42001;BME280;27689;48.390;10.856;2022-07-29T00:51:04;95975.28;;;18.59;100.00
42001;BME280;27689;48.390;10.856;2022-07-29T00:53:49;95979.50;;;18.47;100.00
42001;BME280;27689;48.390;10.856;2022-07-29T00:56:34;95983.19;;;18.53;100.00
42001;BME280;27689;48.390;10.856;2022-07-29T00:59:18;95985.84;;;18.53;100.00
42001;BME280;27689;48.390;10.856;2022-07-29T01:02:02;95978.44;;;18.42;100.00
42001;BME280;27689;48.390;10.856;2022-07-29T01:04:48;95975.41;;;18.38;100.00
42001;BME280;27689;48.390;10.856;2022-07-29T01:07:34;95973.72;;;18.30;100.00
42001;BME280;27689;48.390;10.856;2022-07-29T01:10:19;95975.34;;;18.25;100.00
42001;BME280;27689;48.390;10.856;2022-07-29T01:13:05;95970.25;;;18.30;100.00
42001;BME280;27689;48.390;10.856;2022-07-29T01:15:55;95968.41;;;18.30;100.00
42001;BME280;27689;48.390;10.856;2022-07-29T01:18:44;95966.56;;;18.24;100.00
42001;BME280;27689;48.390;10.856;2022-07-29T01:21:50;95956.75;;;18.18;100.00
42001;BME280;27689;48.390;10.856;2022-07-29T01:30:44;95950.81;;;18.10;100.00
42001;BME280;27689;48.390;10.856;2022-07-29T01:33:30;95937.31;;;18.05;100.00
42001;BME280;27689;48.390;10.856;2022-07-29T01:37:01;95932.16;;;17.96;100.00
42001;BME280;27689;48.390;10.856;2022-07-29T01:39:49;95929.50;;;17.90;100.00
42001;BME280;27689;48.390;10.856;2022-07-29T01:42:48;95933.59;;;17.92;100.00
42001;BME280;27689;48.390;10.856;2022-07-29T01:45:56;95938.25;;;17.90;100.00
42001;BME280;27689;48.390;10.856;2022-07-29T01:48:45;95945.19;;;17.91;100.00
42001;BME280;27689;48.390;10.856;2022-07-29T01:51:46;95934.41;;;17.93;100.00
42001;BME280;27689;48.390;10.856;2022-07-29T01:54:37;95937.69;;;17.95;100.00
42001;BME280;27689;48.390;10.856;2022-07-29T01:57:27;95935.03;;;18.02;100.00
42001;BME280;27689;48.390;10.856;2022-07-29T02:00:13;95932.41;;;18.02;100.00
42001;BME280;27689;48.390;10.856;2022-07-29T02:03:02;95936.06;;;18.01;100.00
42001;BME280;27689;48.390;10.856;2022-07-29T02:05:48;95934.59;;;17.91;100.00
42001;BME280;27689;48.390;10.856;2022-07-29T02:08:34;95924.00;;;17.91;100.00
42001;BME280;27689;48.390;10.856;2022-07-29T02:11:19;95919.13;;;17.95;100.00
42001;BME280;27689;48.390;10.856;2022-07-29T02:14:04;95914.03;;;17.93;100.00
42001;BME280;27689;48.390;10.856;2022-07-29T02:16:52;95921.34;;;17.91;100.00
42001;BME280;27689;48.390;10.856;2022-07-29T02:19:38;95917.00;;;17.84;100.00
42001;BME280;27689;48.390;10.856;2022-07-29T02:22:26;95912.53;;;17.84;100.00
42001;BME280;27689;48.390;10.856;2022-07-29T02:25:13;95916.63;;;17.80;100.00
42001;BME280;27689;48.390;10.856;2022-07-29T02:27:58;95922.69;;;17.81;100.00
42001;BME280;27689;48.390;10.856;2022-07-29T02:30:45;95920.47;;;17.84;100.00
42001;BME280;27689;48.390;10.856;2022-07-29T02:33:31;95919.09;;;17.88;100.00
42001;BME280;27689;48.390;10.856;2022-07-29T02:36:15;95920.72;;;17.89;100.00
42001;BME280;27689;48.390;10.856;2022-07-29T02:39:00;95924.56;;;17.87;100.00
42001;BME280;27689;48.390;10.856;2022-07-29T02:41:55;95920.28;;;17.79;100.00
42001;BME280;27689;48.390;10.856;2022-07-29T02:44:42;95919.22;;;17.74;100.00
42001;BME280;27689;48.390;10.856;2022-07-29T02:47:43;95912.72;;;17.76;100.00
42001;BME280;27689;48.390;10.856;2022-07-29T02:50:34;95909.69;;;17.79;100.00
42001;BME280;27689;48.390;10.856;2022-07-29T02:53:23;95911.09;;;17.82;100.00
42001;BME280;27689;48.390;10.856;2022-07-29T02:56:12;95916.00;;;17.85;100.00
42001;BME280;27689;48.390;10.856;2022-07-29T02:58:58;95918.47;;;17.86;100.00
42001;BME280;27689;48.390;10.856;2022-07-29T03:01:45;95923.94;;;17.85;100.00
42001;BME280;27689;48.390;10.856;2022-07-29T03:04:30;95917.44;;;17.87;100.00
42001;BME280;27689;48.390;10.856;2022-07-29T03:07:18;95921.34;;;17.91;100.00
42001;BME280;27689;48.390;10.856;2022-07-29T03:10:03;95921.53;;;17.90;100.00
42001;BME280;27689;48.390;10.856;2022-07-29T03:12:48;95925.00;;;17.90;100.00
42001;BME280;27689;48.390;10.856;2022-07-29T03:15:32;95936.63;;;17.89;100.00
42001;BME280;27689;48.390;10.856;2022-07-29T03:18:16;95938.00;;;17.79;100.00
42001;BME280;27689;48.390;10.856;2022-07-29T03:21:01;95938.41;;;17.82;100.00
42001;BME280;27689;48.390;10.856;2022-07-29T03:23:45;95938.59;;;17.81;100.00
42001;BME280;27689;48.390;10.856;2022-07-29T03:26:29;95938.81;;;17.79;100.00
42001;BME280;27689;48.390;10.856;2022-07-29T03:29:13;95945.53;;;17.75;100.00
42001;BME280;27689;48.390;10.856;2022-07-29T03:31:57;95941.03;;;17.76;100.00
42001;BME280;27689;48.390;10.856;2022-07-29T03:34:41;95941.44;;;17.73;100.00
42001;BME280;27689;48.390;10.856;2022-07-29T03:37:25;95938.13;;;17.64;100.00
42001;BME280;27689;48.390;10.856;2022-07-29T03:40:12;95937.84;;;17.59;100.00
42001;BME280;27689;48.390;10.856;2022-07-29T03:42:58;95938.47;;;17.61;100.00
42001;BME280;27689;48.390;10.856;2022-07-29T03:45:44;95947.25;;;17.61;100.00
42001;BME280;27689;48.390;10.856;2022-07-29T03:48:30;95955.38;;;17.60;100.00
42001;BME280;27689;48.390;10.856;2022-07-29T03:51:16;95941.50;;;17.58;100.00
42001;BME280;27689;48.390;10.856;2022-07-29T03:54:02;95938.22;;;17.56;100.00
42001;BME280;27689;48.390;10.856;2022-07-29T03:56:48;95943.34;;;17.57;100.00
42001;BME280;27689;48.390;10.856;2022-07-29T03:59:33;95945.78;;;17.59;100.00
42001;BME280;27689;48.390;10.856;2022-07-29T04:02:17;95955.13;;;17.55;100.00
42001;BME280;27689;48.390;10.856;2022-07-29T04:05:01;95955.69;;;17.44;100.00
42001;BME280;27689;48.390;10.856;2022-07-29T04:07:46;95964.88;;;17.48;100.00
42001;BME280;27689;48.390;10.856;2022-07-29T04:10:31;95971.81;;;17.49;100.00
42001;BME280;27689;48.390;10.856;2022-07-29T04:13:15;95973.06;;;17.53;100.00
42001;BME280;27689;48.390;10.856;2022-07-29T04:15:59;95973.06;;;17.53;100.00
42001;BME280;27689;48.390;10.856;2022-07-29T04:18:44;95983.91;;;17.58;100.00
42001;BME280;27689;48.390;10.856;2022-07-29T04:21:28;95971.66;;;17.57;100.00
42001;BME280;27689;48.390;10.856;2022-07-29T04:24:12;95976.97;;;17.57;100.00
42001;BME280;27689;48.390;10.856;2022-07-29T04:26:56;95980.25;;;17.59;100.00
42001;BME280;27689;48.390;10.856;2022-07-29T04:29:40;95975.94;;;17.58;100.00
42001;BME280;27689;48.390;10.856;2022-07-29T04:32:24;95981.25;;;17.58;100.00
42001;BME280;27689;48.390;10.856;2022-07-29T04:35:08;95982.06;;;17.58;100.00
42001;BME280;27689;48.390;10.856;2022-07-29T04:37:52;95991.47;;;17.61;100.00
42001;BME280;27689;48.390;10.856;2022-07-29T04:40:37;95989.81;;;17.60;100.00
42001;BME280;27689;48.390;10.856;2022-07-29T04:43:20;95994.94;;;17.61;100.00
42001;BME280;27689;48.390;10.856;2022-07-29T04:46:06;95997.22;;;17.65;100.00
42001;BME280;27689;48.390;10.856;2022-07-29T04:48:50;95997.84;;;17.67;100.00
42001;BME280;27689;48.390;10.856;2022-07-29T04:51:34;96002.94;;;17.68;100.00
42001;BME280;27689;48.390;10.856;2022-07-29T04:54:18;96002.38;;;17.73;100.00
42001;BME280;27689;48.390;10.856;2022-07-29T04:57:02;96006.66;;;17.74;100.00
42001;BME280;27689;48.390;10.856;2022-07-29T04:59:46;96001.16;;;17.75;100.00
42001;BME280;27689;48.390;10.856;2022-07-29T05:02:30;96008.31;;;17.81;100.00
42001;BME280;27689;48.390;10.856;2022-07-29T05:05:14;96008.56;;;17.86;100.00
42001;BME280;27689;48.390;10.856;2022-07-29T05:07:58;96006.56;;;17.88;100.00
42001;BME280;27689;48.390;10.856;2022-07-29T05:10:42;96019.81;;;17.88;100.00
42001;BME280;27689;48.390;10.856;2022-07-29T05:13:26;96021.06;;;17.92;100.00
42001;BME280;27689;48.390;10.856;2022-07-29T05:16:10;96024.53;;;17.93;100.00
42001;BME280;27689;48.390;10.856;2022-07-29T05:18:54;96018.63;;;17.97;100.00
42001;BME280;27689;48.390;10.856;2022-07-29T05:21:38;96018.88;;;18.03;100.00
42001;BME280;27689;48.390;10.856;2022-07-29T05:24:22;96010.72;;;18.04;100.00
42001;BME280;27689;48.390;10.856;2022-07-29T05:27:06;96010.53;;;18.06;100.00
42001;BME280;27689;48.390;10.856;2022-07-29T05:29:50;96009.09;;;18.03;100.00
42001;BME280;27689;48.390;10.856;2022-07-29T05:32:34;96016.03;;;18.11;100.00
42001;BME280;27689;48.390;10.856;2022-07-29T05:35:17;96024.63;;;18.13;100.00
42001;BME280;27689;48.390;10.856;2022-07-29T05:38:01;96024.25;;;18.16;100.00
42001;BME280;27689;48.390;10.856;2022-07-29T05:40:45;96026.31;;;18.20;100.00
42001;BME280;27689;48.390;10.856;2022-07-29T05:43:30;96020.81;;;18.22;100.00
42001;BME280;27689;48.390;10.856;2022-07-29T05:46:14;96019.38;;;18.26;100.00
42001;BME280;27689;48.390;10.856;2022-07-29T05:48:59;96016.59;;;18.34;100.00
42001;BME280;27689;48.390;10.856;2022-07-29T05:51:43;96009.25;;;18.43;100.00
42001;BME280;27689;48.390;10.856;2022-07-29T05:54:27;96012.97;;;18.48;100.00
42001;BME280;27689;48.390;10.856;2022-07-29T05:57:18;96011.13;;;18.55;100.00
42001;BME280;27689;48.390;10.856;2022-07-29T06:00:03;96008.94;;;18.59;100.00
42001;BME280;27689;48.390;10.856;2022-07-29T06:02:47;96006.72;;;18.62;100.00
42001;BME280;27689;48.390;10.856;2022-07-29T06:05:31;96003.28;;;18.69;100.00
42001;BME280;27689;48.390;10.856;2022-07-29T06:08:15;96002.66;;;18.73;100.00
42001;BME280;27689;48.390;10.856;2022-07-29T06:11:00;96008.00;;;18.80;100.00
42001;BME280;27689;48.390;10.856;2022-07-29T06:13:44;96014.56;;;18.84;100.00
42001;BME280;27689;48.390;10.856;2022-07-29T06:16:28;96030.06;;;18.87;100.00
42001;BME280;27689;48.390;10.856;2022-07-29T06:19:12;96027.22;;;18.95;100.00
42001;BME280;27689;48.390;10.856;2022-07-29T06:21:56;96034.81;;;18.98;100.00
42001;BME280;27689;48.390;10.856;2022-07-29T06:24:40;96028.88;;;19.02;100.00
42001;BME280;27689;48.390;10.856;2022-07-29T06:27:27;96019.72;;;19.12;100.00
42001;BME280;27689;48.390;10.856;2022-07-29T06:30:12;96025.03;;;19.18;100.00
42001;BME280;27689;48.390;10.856;2022-07-29T06:32:56;96029.13;;;19.27;100.00
42001;BME280;27689;48.390;10.856;2022-07-29T06:35:40;96026.47;;;19.34;100.00
42001;BME280;27689;48.390;10.856;2022-07-29T06:38:25;96024.22;;;19.37;100.00
42001;BME280;27689;48.390;10.856;2022-07-29T06:41:09;96026.25;;;19.49;100.00
42001;BME280;27689;48.390;10.856;2022-07-29T06:43:55;96022.63;;;19.56;99.89
42001;BME280;27689;48.390;10.856;2022-07-29T06:46:39;96021.81;;;19.69;100.00
42001;BME280;27689;48.390;10.856;2022-07-29T06:49:23;96026.28;;;19.82;98.32
42001;BME280;27689;48.390;10.856;2022-07-29T06:52:08;96043.28;;;19.87;95.26
42001;BME280;27689;48.390;10.856;2022-07-29T06:54:52;96029.34;;;19.98;95.15
42001;BME280;27689;48.390;10.856;2022-07-29T06:57:36;96028.94;;;20.01;93.56
42001;BME280;27689;48.390;10.856;2022-07-29T07:00:20;96030.94;;;20.13;93.42
42001;BME280;27689;48.390;10.856;2022-07-29T07:03:05;96031.31;;;20.23;94.00
42001;BME280;27689;48.390;10.856;2022-07-29T07:05:49;96041.94;;;20.36;95.10
42001;BME280;27689;48.390;10.856;2022-07-29T07:08:33;96044.16;;;20.52;94.96
42001;BME280;27689;48.390;10.856;2022-07-29T07:11:16;96040.63;;;20.65;91.84
42001;BME280;27689;48.390;10.856;2022-07-29T07:14:00;96037.53;;;20.68;86.31
42001;BME280;27689;48.390;10.856;2022-07-29T07:16:44;96039.53;;;20.79;89.19
42001;BME280;27689;48.390;10.856;2022-07-29T07:19:28;96037.66;;;20.86;87.75
42001;BME280;27689;48.390;10.856;2022-07-29T07:22:12;96029.59;;;20.99;86.60
42001;BME280;27689;48.390;10.856;2022-07-29T07:24:56;96036.47;;;21.13;82.57
42001;BME280;27689;48.390;10.856;2022-07-29T07:27:40;96040.78;;;21.21;81.74
42001;BME280;27689;48.390;10.856;2022-07-29T07:30:24;96025.75;;;21.27;81.04
42001;BME280;27689;48.390;10.856;2022-07-29T07:33:08;96036.94;;;21.42;83.26
42001;BME280;27689;48.390;10.856;2022-07-29T07:35:52;96034.16;;;21.55;81.67
42001;BME280;27689;48.390;10.856;2022-07-29T07:38:36;96037.72;;;21.74;84.43
42001;BME280;27689;48.390;10.856;2022-07-29T07:41:21;96032.16;;;21.75;79.62
42001;BME280;27689;48.390;10.856;2022-07-29T07:44:05;96024.34;;;21.80;81.41
42001;BME280;27689;48.390;10.856;2022-07-29T07:46:49;96025.47;;;21.91;79.26
42001;BME280;27689;48.390;10.856;2022-07-29T07:49:33;96027.00;;;21.99;79.42
42001;BME280;27689;48.390;10.856;2022-07-29T07:52:20;96030.53;;;21.99;78.08
42001;BME280;27689;48.390;10.856;2022-07-29T07:55:04;96035.00;;;22.05;77.74
42001;BME280;27689;48.390;10.856;2022-07-29T07:57:49;96020.84;;;21.98;76.57
42001;BME280;27689;48.390;10.856;2022-07-29T08:00:33;96028.41;;;22.08;79.27
42001;BME280;27689;48.390;10.856;2022-07-29T08:03:17;96035.72;;;22.12;76.99
42001;BME280;27689;48.390;10.856;2022-07-29T08:06:02;96035.28;;;22.15;79.12
42001;BME280;27689;48.390;10.856;2022-07-29T08:08:46;96035.81;;;22.06;78.38
42001;BME280;27689;48.390;10.856;2022-07-29T08:11:31;96042.56;;;22.08;78.10
42001;BME280;27689;48.390;10.856;2022-07-29T08:14:15;96033.63;;;21.96;76.30
42001;BME280;27689;48.390;10.856;2022-07-29T08:16:59;96035.47;;;21.96;76.64
42001;BME280;27689;48.390;10.856;2022-07-29T08:19:43;96047.94;;;22.02;77.53
42001;BME280;27689;48.390;10.856;2022-07-29T08:22:27;96047.31;;;22.06;75.89
42001;BME280;27689;48.390;10.856;2022-07-29T08:25:11;96044.34;;;22.14;77.35
42001;BME280;27689;48.390;10.856;2022-07-29T08:27:55;96040.78;;;22.21;77.01
42001;BME280;27689;48.390;10.856;2022-07-29T08:30:39;96042.44;;;22.22;77.65
42001;BME280;27689;48.390;10.856;2022-07-29T08:33:23;96046.28;;;22.26;75.71
42001;BME280;27689;48.390;10.856;2022-07-29T08:36:07;96048.19;;;22.19;76.48
42001;BME280;27689;48.390;10.856;2022-07-29T08:38:52;96053.09;;;21.97;76.34
42001;BME280;27689;48.390;10.856;2022-07-29T08:41:36;96047.41;;;21.93;74.97
42001;BME280;27689;48.390;10.856;2022-07-29T08:44:20;96056.13;;;22.07;75.90
42001;BME280;27689;48.390;10.856;2022-07-29T08:47:05;96057.25;;;22.17;76.13
42001;BME280;27689;48.390;10.856;2022-07-29T08:49:49;96045.69;;;22.24;75.53
42001;BME280;27689;48.390;10.856;2022-07-29T08:52:36;96058.09;;;22.36;76.80
42001;BME280;27689;48.390;10.856;2022-07-29T08:55:20;96055.53;;;22.41;75.10
42001;BME280;27689;48.390;10.856;2022-07-29T08:58:05;96051.84;;;22.42;73.89
42001;BME280;27689;48.390;10.856;2022-07-29T09:00:51;96052.66;;;22.43;72.87
42001;BME280;27689;48.390;10.856;2022-07-29T09:03:36;96042.78;;;22.43;71.97
42001;BME280;27689;48.390;10.856;2022-07-29T09:06:23;96049.78;;;22.44;72.11
42001;BME280;27689;48.390;10.856;2022-07-29T09:09:11;96052.97;;;22.53;71.82
42001;BME280;27689;48.390;10.856;2022-07-29T09:11:59;96052.88;;;22.60;71.38
42001;BME280;27689;48.390;10.856;2022-07-29T09:14:43;96054.22;;;22.50;70.63
42001;BME280;27689;48.390;10.856;2022-07-29T09:20:25;96053.63;;;22.48;71.76
42001;BME280;27689;48.390;10.856;2022-07-29T09:23:09;96059.47;;;22.57;72.78
42001;BME280;27689;48.390;10.856;2022-07-29T09:25:53;96046.31;;;22.80;73.99
42001;BME280;27689;48.390;10.856;2022-07-29T09:28:41;96055.22;;;23.04;72.40
42001;BME280;27689;48.390;10.856;2022-07-29T09:31:37;96045.22;;;23.30;72.98
42001;BME280;27689;48.390;10.856;2022-07-29T09:34:24;96043.44;;;23.53;72.19
42001;BME280;27689;48.390;10.856;2022-07-29T09:37:08;96050.63;;;23.11;73.11
42001;BME280;27689;48.390;10.856;2022-07-29T09:39:52;96047.84;;;23.18;71.16
42001;BME280;27689;48.390;10.856;2022-07-29T09:42:36;96039.47;;;23.44;73.10
42001;BME280;27689;48.390;10.856;2022-07-29T09:45:31;96047.56;;;23.91;71.55
42001;BME280;27689;48.390;10.856;2022-07-29T09:48:23;96046.19;;;24.12;69.54
42001;BME280;27689;48.390;10.856;2022-07-29T09:51:20;96038.06;;;24.30;69.62
42001;BME280;27689;48.390;10.856;2022-07-29T09:54:24;96042.94;;;24.33;67.92
42001;BME280;27689;48.390;10.856;2022-07-29T09:57:22;96037.16;;;24.76;69.52
42001;BME280;27689;48.390;10.856;2022-07-29T10:00:08;96032.22;;;24.97;66.56
42001;BME280;27689;48.390;10.856;2022-07-29T10:02:59;96037.09;;;25.00;66.75
42001;BME280;27689;48.390;10.856;2022-07-29T10:05:45;96025.59;;;25.16;63.73
42001;BME280;27689;48.390;10.856;2022-07-29T10:08:29;96027.34;;;25.22;64.27
42001;BME280;27689;48.390;10.856;2022-07-29T10:11:18;96034.94;;;25.58;63.88
42001;BME280;27689;48.390;10.856;2022-07-29T10:14:03;96039.53;;;25.75;60.30
42001;BME280;27689;48.390;10.856;2022-07-29T10:16:48;96045.50;;;25.48;61.16
42001;BME280;27689;48.390;10.856;2022-07-29T10:19:33;96041.00;;;25.54;59.23
42001;BME280;27689;48.390;10.856;2022-07-29T10:22:18;96025.97;;;25.53;59.95
42001;BME280;27689;48.390;10.856;2022-07-29T10:25:03;96029.75;;;25.69;60.41
42001;BME280;27689;48.390;10.856;2022-07-29T10:27:48;96027.06;;;25.69;59.89
42001;BME280;27689;48.390;10.856;2022-07-29T10:30:32;96031.59;;;25.51;58.17
42001;BME280;27689;48.390;10.856;2022-07-29T10:33:41;96030.81;;;25.68;60.21
42001;BME280;27689;48.390;10.856;2022-07-29T10:36:42;96029.69;;;25.80;59.72
42001;BME280;27689;48.390;10.856;2022-07-29T10:39:41;96025.69;;;25.83;59.20
42001;BME280;27689;48.390;10.856;2022-07-29T10:42:30;96017.09;;;25.64;61.06
42001;BME280;27689;48.390;10.856;2022-07-29T10:45:16;96013.97;;;25.89;59.46
42001;BME280;27689;48.390;10.856;2022-07-29T10:48:04;96012.19;;;25.94;59.95
42001;BME280;27689;48.390;10.856;2022-07-29T10:51:00;96011.50;;;26.21;59.25
42001;BME280;27689;48.390;10.856;2022-07-29T10:53:51;96007.81;;;26.27;58.91
42001;BME280;27689;48.390;10.856;2022-07-29T10:56:36;96006.88;;;26.55;57.33
42001;BME280;27689;48.390;10.856;2022-07-29T11:05:20;95996.22;;;26.87;56.46
42001;BME280;27689;48.390;10.856;2022-07-29T11:14:04;95993.94;;;26.95;56.59
42001;BME280;27689;48.390;10.856;2022-07-29T11:17:00;95990.13;;;27.18;56.75
42001;BME280;27689;48.390;10.856;2022-07-29T11:19:48;95986.75;;;27.28;55.15
42001;BME280;27689;48.390;10.856;2022-07-29T11:22:33;95983.88;;;27.39;53.50
42001;BME280;27689;48.390;10.856;2022-07-29T11:25:18;95981.38;;;27.33;52.67
42001;BME280;27689;48.390;10.856;2022-07-29T11:28:10;95975.00;;;27.39;52.00
42001;BME280;27689;48.390;10.856;2022-07-29T11:30:54;95968.44;;;27.57;51.16
42001;BME280;27689;48.390;10.856;2022-07-29T11:33:38;95980.09;;;27.67;50.66
42001;BME280;27689;48.390;10.856;2022-07-29T11:36:23;95989.47;;;27.33;49.94
42001;BME280;27689;48.390;10.856;2022-07-29T11:39:28;95986.84;;;27.11;48.95
42001;BME280;27689;48.390;10.856;2022-07-29T11:45:44;95989.13;;;26.97;47.99
42001;BME280;27689;48.390;10.856;2022-07-29T11:48:29;95991.81;;;26.97;48.70
42001;BME280;27689;48.390;10.856;2022-07-29T11:51:13;95992.69;;;26.81;45.88
42001;BME280;27689;48.390;10.856;2022-07-29T11:53:57;95989.03;;;27.14;46.50
42001;BME280;27689;48.390;10.856;2022-07-29T11:56:44;95989.47;;;27.33;44.22
42001;BME280;27689;48.390;10.856;2022-07-29T11:59:29;95983.94;;;27.18;45.03
42001;BME280;27689;48.390;10.856;2022-07-29T12:02:14;95982.47;;;27.05;45.79
42001;BME280;27689;48.390;10.856;2022-07-29T12:04:59;95983.53;;;27.04;46.55
42001;BME280;27689;48.390;10.856;2022-07-29T12:07:43;95981.22;;;26.91;46.90
42001;BME280;27689;48.390;10.856;2022-07-29T12:10:30;95974.06;;;26.96;46.37
42001;BME280;27689;48.390;10.856;2022-07-29T12:13:16;95977.97;;;26.89;48.74
42001;BME280;27689;48.390;10.856;2022-07-29T12:16:00;95973.75;;;26.71;47.90
42001;BME280;27689;48.390;10.856;2022-07-29T12:18:55;95964.19;;;26.58;49.06
42001;BME280;27689;48.390;10.856;2022-07-29T12:21:49;95968.31;;;26.66;49.02
42001;BME280;27689;48.390;10.856;2022-07-29T12:24:43;95963.25;;;26.69;47.68
42001;BME280;27689;48.390;10.856;2022-07-29T12:27:28;95969.97;;;26.72;45.79
42001;BME280;27689;48.390;10.856;2022-07-29T12:30:14;95960.19;;;26.61;44.54
42001;BME280;27689;48.390;10.856;2022-07-29T12:32:59;95958.38;;;26.45;45.82
42001;BME280;27689;48.390;10.856;2022-07-29T12:35:48;95957.56;;;26.44;47.94
42001;BME280;27689;48.390;10.856;2022-07-29T12:38:33;95962.31;;;26.37;46.10
42001;BME280;27689;48.390;10.856;2022-07-29T12:41:18;95962.59;;;26.19;46.17
42001;BME280;27689;48.390;10.856;2022-07-29T12:44:02;95968.06;;;26.07;46.63
42001;BME280;27689;48.390;10.856;2022-07-29T12:47:01;95968.19;;;25.95;47.16
42001;BME280;27689;48.390;10.856;2022-07-29T12:49:46;95964.53;;;25.85;48.08
42001;BME280;27689;48.390;10.856;2022-07-29T12:52:33;95967.19;;;25.85;48.99
42001;BME280;27689;48.390;10.856;2022-07-29T12:55:40;95961.84;;;25.85;48.98
42001;BME280;27689;48.390;10.856;2022-07-29T12:58:40;95967.06;;;25.75;48.78
42001;BME280;27689;48.390;10.856;2022-07-29T13:01:25;95969.59;;;25.64;49.78
42001;BME280;27689;48.390;10.856;2022-07-29T13:04:10;95973.13;;;25.53;50.76
42001;BME280;27689;48.390;10.856;2022-07-29T13:07:05;95973.53;;;25.45;51.79
42001;BME280;27689;48.390;10.856;2022-07-29T13:09:51;95972.16;;;25.43;47.84
42001;BME280;27689;48.390;10.856;2022-07-29T13:12:35;95969.16;;;25.39;46.86
42001;BME280;27689;48.390;10.856;2022-07-29T13:15:19;95967.25;;;25.23;46.54
42001;BME280;27689;48.390;10.856;2022-07-29T13:18:05;95966.13;;;25.19;46.87
42001;BME280;27689;48.390;10.856;2022-07-29T13:20:49;95959.16;;;25.18;46.85
42001;BME280;27689;48.390;10.856;2022-07-29T13:23:33;95961.72;;;25.13;47.93
42001;BME280;27689;48.390;10.856;2022-07-29T13:26:17;95969.16;;;25.22;46.94
42001;BME280;27689;48.390;10.856;2022-07-29T13:29:03;95974.25;;;25.24;45.44
42001;BME280;27689;48.390;10.856;2022-07-29T13:31:47;95978.47;;;25.03;45.82
42001;BME280;27689;48.390;10.856;2022-07-29T13:34:31;95973.75;;;25.10;45.91
42001;BME280;27689;48.390;10.856;2022-07-29T13:37:15;95963.59;;;25.12;46.21
42001;BME280;27689;48.390;10.856;2022-07-29T13:40:00;95968.81;;;25.19;46.74
42001;BME280;27689;48.390;10.856;2022-07-29T13:42:47;95954.59;;;25.18;45.78
42001;BME280;27689;48.390;10.856;2022-07-29T13:45:31;95948.25;;;25.24;47.55
42001;BME280;27689;48.390;10.856;2022-07-29T13:48:15;95948.69;;;25.33;46.68
42001;BME280;27689;48.390;10.856;2022-07-29T13:50:59;95946.88;;;25.39;47.78
42001;BME280;27689;48.390;10.856;2022-07-29T13:53:43;95953.72;;;25.46;49.26
42001;BME280;27689;48.390;10.856;2022-07-29T13:56:26;95956.06;;;25.43;48.31
42001;BME280;27689;48.390;10.856;2022-07-29T13:59:10;95957.59;;;25.39;48.54
42001;BME280;27689;48.390;10.856;2022-07-29T14:01:54;95955.91;;;25.33;48.35
42001;BME280;27689;48.390;10.856;2022-07-29T14:04:39;95953.28;;;25.38;48.47
42001;BME280;27689;48.390;10.856;2022-07-29T14:07:23;95947.63;;;25.34;46.97
42001;BME280;27689;48.390;10.856;2022-07-29T14:10:07;95945.34;;;25.43;46.86
42001;BME280;27689;48.390;10.856;2022-07-29T14:12:51;95940.06;;;25.48;45.03
42001;BME280;27689;48.390;10.856;2022-07-29T14:15:36;95936.47;;;25.59;45.54
42001;BME280;27689;48.390;10.856;2022-07-29T14:18:20;95930.53;;;25.74;43.96
42001;BME280;27689;48.390;10.856;2022-07-29T14:21:04;95932.41;;;25.73;43.27
42001;BME280;27689;48.390;10.856;2022-07-29T14:23:48;95927.47;;;25.82;44.78
42001;BME280;27689;48.390;10.856;2022-07-29T14:26:32;95936.50;;;25.97;45.57
42001;BME280;27689;48.390;10.856;2022-07-29T14:29:16;95929.03;;;25.99;44.78
42001;BME280;27689;48.390;10.856;2022-07-29T14:32:00;95926.09;;;26.01;45.96
42001;BME280;27689;48.390;10.856;2022-07-29T14:34:44;95926.75;;;26.08;46.19
42001;BME280;27689;48.390;10.856;2022-07-29T14:37:28;95935.06;;;26.28;46.97
42001;BME280;27689;48.390;10.856;2022-07-29T14:40:12;95935.13;;;26.33;45.78
42001;BME280;27689;48.390;10.856;2022-07-29T14:42:59;95949.03;;;26.09;45.27
42001;BME280;27689;48.390;10.856;2022-07-29T14:45:43;95949.03;;;26.09;45.66
42001;BME280;27689;48.390;10.856;2022-07-29T14:48:27;95950.72;;;26.15;45.18